Garrett, Illinois
Current Conditions -  °F | °C
As of 1:53 PM on Thursday 29 Jan 2015 (Local Time) from KCMI Reporting Station
Haze Haze  
Wind Chill: 24°   Ceiling: 1900
Heat Index: 35°   Visibility: 6mi
Dew Point: 29°   Wind: 18mph
Humidity: 78%   Direction: 310°NW
Pressure: 30.05"   Gusts: 26mph
Location:  39.82°N, 88.4452°W
Report Text: KCMI 291953Z 31016G23KT 6SM HZ OVC019 02/M02 A3005 RMK AO2 PK WND 30027/1904 SLP182 T00171017
Loading
Personal Weather Stations






























Interactive Weather Map New forecast layout! Learn more

10-Day Weather Forecast

Advertisements
Track Severe Weather on mobile